sensor_id;sensor_type;location;lat;lon;timestamp;P1;P2;P0
55857;PMS7003;41779;52.360;31.026;2024-03-08T06:10:14;16;14;10.2
55857;PMS7003;41779;52.360;31.026;2024-03-08T06:14:28;16;14;10.2
55857;PMS7003;41779;52.360;31.026;2024-03-08T06:20:14;17.2;14;10.6
55857;PMS7003;41779;52.360;31.026;2024-03-08T06:24:44;17.2;14;10.6
55857;PMS7003;41779;52.360;31.026;2024-03-08T06:29:38;18.2;14.4;10.6
55857;PMS7003;41779;52.360;31.026;2024-03-08T06:34:26;20.2;14.2;10.6
55857;PMS7003;41779;52.360;31.026;2024-03-08T06:39:26;22.6;15.8;11.4
55857;PMS7003;41779;52.360;31.026;2024-03-08T06:44:44;20.2;17;12.8
55857;PMS7003;41779;52.360;31.026;2024-03-08T06:49:32;39.6;29.8;21.2
55857;PMS7003;41779;52.360;31.026;2024-03-08T06:54:52;29.4;24.4;16.6
55857;PMS7003;41779;52.360;31.026;2024-03-08T07:00:00;32;23.8;17
55857;PMS7003;41779;52.360;31.026;2024-03-08T07:05:14;28.6;23;16.6
55857;PMS7003;41779;52.360;31.026;2024-03-08T07:09:32;28.6;23;16.6
55857;PMS7003;41779;52.360;31.026;2024-03-08T07:15:14;26;22.2;15.4
55857;PMS7003;41779;52.360;31.026;2024-03-08T07:19:54;26;22.2;15.4
55857;PMS7003;41779;52.360;31.026;2024-03-08T07:24:52;26.2;22.2;16.6
55857;PMS7003;41779;52.360;31.026;2024-03-08T07:29:44;25.8;22.8;17
55857;PMS7003;41779;52.360;31.026;2024-03-08T07:35:04;26.8;21;16.2
55857;PMS7003;41779;52.360;31.026;2024-03-08T07:40:14;29.8;24;17
55857;PMS7003;41779;52.360;31.026;2024-03-08T07:45:14;23.8;21.4;16.2
55857;PMS7003;41779;52.360;31.026;2024-03-08T07:49:50;23.8;21.4;16.2
55857;PMS7003;41779;52.360;31.026;2024-03-08T07:55:04;19.3;17;13.3
55857;PMS7003;41779;52.360;31.026;2024-03-08T07:59:32;19.3;17;13.3
55857;PMS7003;41779;52.360;31.026;2024-03-08T08:04:38;24.6;19.4;13.2
55857;PMS7003;41779;52.360;31.026;2024-03-08T08:09:32;23;19.4;14.6
55857;PMS7003;41779;52.360;31.026;2024-03-08T08:14:38;30.2;24.6;17.8
55857;PMS7003;41779;52.360;31.026;2024-03-08T08:19:50;22.2;19.6;14.6
55857;PMS7003;41779;52.360;31.026;2024-03-08T08:25:14;23;21.4;15.2
55857;PMS7003;41779;52.360;31.026;2024-03-08T08:30:00;23;21.4;15.2
55857;PMS7003;41779;52.360;31.026;2024-03-08T08:35:14;20.4;18.6;14
55857;PMS7003;41779;52.360;31.026;2024-03-08T08:40:14;18;16.8;12.5
55857;PMS7003;41779;52.360;31.026;2024-03-08T08:44:52;18;16.8;12.5
55857;PMS7003;41779;52.360;31.026;2024-03-08T08:49:54;22;18.8;14.2
55857;PMS7003;41779;52.360;31.026;2024-03-08T08:54:56;18;14.8;11.2
55857;PMS7003;41779;52.360;31.026;2024-03-08T08:59:54;18.2;15.6;12.2
55857;PMS7003;41779;52.360;31.026;2024-03-08T09:04:28;16.4;14.4;10.2
55857;PMS7003;41779;52.360;31.026;2024-03-08T09:09:56;15.2;12.8;9.8
55857;PMS7003;41779;52.360;31.026;2024-03-08T09:14:46;16.2;12;9.2
55857;PMS7003;41779;52.360;31.026;2024-03-08T09:20:14;14.4;12.8;9.6
55857;PMS7003;41779;52.360;31.026;2024-03-08T09:24:26;14.4;12.8;9.6
55857;PMS7003;41779;52.360;31.026;2024-03-08T09:30:14;9.6;9;7
55857;PMS7003;41779;52.360;31.026;2024-03-08T09:34:27;9.6;9;7
55857;PMS7003;41779;52.360;31.026;2024-03-08T09:40:00;13.6;10.4;8.4
55857;PMS7003;41779;52.360;31.026;2024-03-08T09:44:44;10.4;8.6;7.2
55857;PMS7003;41779;52.360;31.026;2024-03-08T09:49:26;9;7;5
55857;PMS7003;41779;52.360;31.026;2024-03-08T09:54:26;6;4.2;2.8
55857;PMS7003;41779;52.360;31.026;2024-03-08T09:59:32;5.6;4.6;3.8
55857;PMS7003;41779;52.360;31.026;2024-03-08T10:04:32;12;10;6.8
55857;PMS7003;41779;52.360;31.026;2024-03-08T10:09:40;5.6;4.2;3.4
55857;PMS7003;41779;52.360;31.026;2024-03-08T10:15:15;6.6;4.8;3.6
55857;PMS7003;41779;52.360;31.026;2024-03-08T10:19:52;6.6;4.8;3.6
55857;PMS7003;41779;52.360;31.026;2024-03-08T10:25:14;3.4;2.8;2.2
55857;PMS7003;41779;52.360;31.026;2024-03-08T10:30:00;3.4;2.8;2.2
55857;PMS7003;41779;52.360;31.026;2024-03-08T10:34:46;5.4;4.4;3.6
55857;PMS7003;41779;52.360;31.026;2024-03-08T10:39:26;5.8;4.6;3.4
55857;PMS7003;41779;52.360;31.026;2024-03-08T10:44:57;7.4;6.6;5
55857;PMS7003;41779;52.360;31.026;2024-03-08T10:50:16;10.2;7.8;5.6
55857;PMS7003;41779;52.360;31.026;2024-03-08T10:55:15;6.8;6;4.6
55857;PMS7003;41779;52.360;31.026;2024-03-08T10:59:26;6.8;6;4.6
55857;PMS7003;41779;52.360;31.026;2024-03-08T11:05:16;9.8;7.4;5.6
55857;PMS7003;41779;52.360;31.026;2024-03-08T11:09:27;9.8;7.4;5.6
55857;PMS7003;41779;52.360;31.026;2024-03-08T11:15:00;7.4;6;5.2
55857;PMS7003;41779;52.360;31.026;2024-03-08T11:19:50;13.4;11.4;8.4
55857;PMS7003;41779;52.360;31.026;2024-03-08T11:24:26;7.8;6.4;4.6
55857;PMS7003;41779;52.360;31.026;2024-03-08T11:30:14;6.2;5.8;4.4
55857;PMS7003;41779;52.360;31.026;2024-03-08T11:34:26;6.2;5.8;4.4
55857;PMS7003;41779;52.360;31.026;2024-03-08T11:40:14;9.4;6.6;5.2
55857;PMS7003;41779;52.360;31.026;2024-03-08T11:45:00;9.4;6.6;5.2
55857;PMS7003;41779;52.360;31.026;2024-03-08T11:50:14;7.6;5.8;4.8
55857;PMS7003;41779;52.360;31.026;2024-03-08T11:54:53;7.6;5.8;4.8
55857;PMS7003;41779;52.360;31.026;2024-03-08T12:00:15;11.2;7.8;6.2
55857;PMS7003;41779;52.360;31.026;2024-03-08T12:05:00;11.2;7.8;6.2
55857;PMS7003;41779;52.360;31.026;2024-03-08T12:09:40;6;5;3.6
55857;PMS7003;41779;52.360;31.026;2024-03-08T12:14:44;7.2;6.2;5.2
55857;PMS7003;41779;52.360;31.026;2024-03-08T12:19:56;10.2;6;5.2
55857;PMS7003;41779;52.360;31.026;2024-03-08T12:25:16;15.2;12.2;9.4
55857;PMS7003;41779;52.360;31.026;2024-03-08T12:30:17;13.2;9.6;7
55857;PMS7003;41779;52.360;31.026;2024-03-08T12:34:52;13.2;9.6;7
55857;PMS7003;41779;52.360;31.026;2024-03-08T12:40:14;13.6;10.6;7.8
55857;PMS7003;41779;52.360;31.026;2024-03-08T12:45:14;15.3;11.8;8.3
55857;PMS7003;41779;52.360;31.026;2024-03-08T12:49:48;15.3;11.8;8.3
55857;PMS7003;41779;52.360;31.026;2024-03-08T12:55:16;14.4;11.4;8.8
55857;PMS7003;41779;52.360;31.026;2024-03-08T12:59:26;14.4;11.4;8.8
55857;PMS7003;41779;52.360;31.026;2024-03-08T13:04:46;16.4;12.8;10
55857;PMS7003;41779;52.360;31.026;2024-03-08T13:09:34;16.4;12;9.6
55857;PMS7003;41779;52.360;31.026;2024-03-08T13:14:34;14;9.2;7.2
55857;PMS7003;41779;52.360;31.026;2024-03-08T13:19:28;14.6;12.2;9
55857;PMS7003;41779;52.360;31.026;2024-03-08T13:24:44;15.4;11;8.8
55857;PMS7003;41779;52.360;31.026;2024-03-08T13:29:40;13.8;11.4;8.8
55857;PMS7003;41779;52.360;31.026;2024-03-08T13:35:04;13.2;9.6;7.6
55857;PMS7003;41779;52.360;31.026;2024-03-08T13:40:00;13.2;9.6;7.6
55857;PMS7003;41779;52.360;31.026;2024-03-08T13:45:00;12.8;9.6;7.8
55857;PMS7003;41779;52.360;31.026;2024-03-08T13:49:44;9.8;8;6.5
55857;PMS7003;41779;52.360;31.026;2024-03-08T13:54:56;14;10.6;8.6
55857;PMS7003;41779;52.360;31.026;2024-03-08T14:00:06;9.8;7.6;5.8
55857;PMS7003;41779;52.360;31.026;2024-03-08T14:04:46;9.8;7.6;5.8
55857;PMS7003;41779;52.360;31.026;2024-03-08T14:10:06;13.8;9.8;7.6
55857;PMS7003;41779;52.360;31.026;2024-03-08T14:15:00;13.8;9.8;7.6
55857;PMS7003;41779;52.360;31.026;2024-03-08T14:20:16;14.2;11;8.6
55857;PMS7003;41779;52.360;31.026;2024-03-08T14:25:06;15.8;11.8;9
55857;PMS7003;41779;52.360;31.026;2024-03-08T14:30:06;14.4;11.6;8.6
55857;PMS7003;41779;52.360;31.026;2024-03-08T14:35:02;14.4;11.6;8.6
55857;PMS7003;41779;52.360;31.026;2024-03-08T14:39:40;18.2;15;10
55857;PMS7003;41779;52.360;31.026;2024-03-08T14:44:50;29.4;21.6;14.2
55857;PMS7003;41779;52.360;31.026;2024-03-08T14:49:34;26;19.4;13
55857;PMS7003;41779;52.360;31.026;2024-03-08T14:54:52;29;20.5;14.8
55857;PMS7003;41779;52.360;31.026;2024-03-08T14:59:28;18.4;13.4;9.8
55857;PMS7003;41779;52.360;31.026;2024-03-08T15:04:30;21;16;11
55857;PMS7003;41779;52.360;31.026;2024-03-08T15:10:16;31.4;24.8;17.8
55857;PMS7003;41779;52.360;31.026;2024-03-08T15:15:16;22;17.2;12.8
55857;PMS7003;41779;52.360;31.026;2024-03-08T15:19:42;22;17.2;12.8
55857;PMS7003;41779;52.360;31.026;2024-03-08T15:24:30;17;12.2;9.2
55857;PMS7003;41779;52.360;31.026;2024-03-08T15:30:16;20;16.2;12.8
55857;PMS7003;41779;52.360;31.026;2024-03-08T15:35:04;17.6;14.6;10.2
55857;PMS7003;41779;52.360;31.026;2024-03-08T15:39:46;17.6;14.6;10.2
55857;PMS7003;41779;52.360;31.026;2024-03-08T15:45:06;22.8;16.6;12.2
55857;PMS7003;41779;52.360;31.026;2024-03-08T15:49:36;22.8;16.6;12.2
55857;PMS7003;41779;52.360;31.026;2024-03-08T15:55:14;17.4;15.2;12.2
55857;PMS7003;41779;52.360;31.026;2024-03-08T15:59:52;17.4;15.2;12.2
55857;PMS7003;41779;52.360;31.026;2024-03-08T16:05:06;15.4;11.6;9
55857;PMS7003;41779;52.360;31.026;2024-03-08T16:09:28;15.4;11.6;9
55857;PMS7003;41779;52.360;31.026;2024-03-08T16:15:08;19.4;13.2;10.4
55857;PMS7003;41779;52.360;31.026;2024-03-08T16:19:34;19.4;13.2;10.4
55857;PMS7003;41779;52.360;31.026;2024-03-08T16:24:46;15.4;13.8;11
55857;PMS7003;41779;52.360;31.026;2024-03-08T16:29:26;24.6;17.4;13
55857;PMS7003;41779;52.360;31.026;2024-03-08T16:34:26;19.6;15.2;11.2
55857;PMS7003;41779;52.360;31.026;2024-03-08T16:40:00;20.2;17.8;12.6
55857;PMS7003;41779;52.360;31.026;2024-03-08T16:45:14;28.8;20.6;15.8
55857;PMS7003;41779;52.360;31.026;2024-03-08T16:50:15;28.8;23.3;16.5
55857;PMS7003;41779;52.360;31.026;2024-03-08T16:54:32;28.8;23.3;16.5
55857;PMS7003;41779;52.360;31.026;2024-03-08T16:59:54;25.6;20.4;16
55857;PMS7003;41779;52.360;31.026;2024-03-08T17:05:16;30;25;17.4
55857;PMS7003;41779;52.360;31.026;2024-03-08T17:09:46;30;25;17.4
55857;PMS7003;41779;52.360;31.026;2024-03-08T17:14:38;30.6;23.4;17.4
55857;PMS7003;41779;52.360;31.026;2024-03-08T17:19:54;28.2;24.6;18
55857;PMS7003;41779;52.360;31.026;2024-03-08T17:24:46;29.4;22.2;16
55857;PMS7003;41779;52.360;31.026;2024-03-08T17:30:16;25;19.6;14.6
55857;PMS7003;41779;52.360;31.026;2024-03-08T17:34:28;25;19.6;14.6
55857;PMS7003;41779;52.360;31.026;2024-03-08T17:40:17;27;18;14.4
55857;PMS7003;41779;52.360;31.026;2024-03-08T17:44:50;27;18;14.4
55857;PMS7003;41779;52.360;31.026;2024-03-08T17:50:17;24.8;20.3;15
55857;PMS7003;41779;52.360;31.026;2024-03-08T17:54:34;24.8;20.3;15
55857;PMS7003;41779;52.360;31.026;2024-03-08T17:59:28;23;19.8;15.2
55857;PMS7003;41779;52.360;31.026;2024-03-08T18:05:02;25.6;20.4;15.8
55857;PMS7003;41779;52.360;31.026;2024-03-08T18:09:42;27;20.8;15
55857;PMS7003;41779;52.360;31.026;2024-03-08T18:14:34;27.6;23.2;17.6
55857;PMS7003;41779;52.360;31.026;2024-03-08T18:19:26;26.4;19.6;14.8
55857;PMS7003;41779;52.360;31.026;2024-03-08T18:25:16;43;35;25
55857;PMS7003;41779;52.360;31.026;2024-03-08T18:30:02;43;35;25
55857;PMS7003;41779;52.360;31.026;2024-03-08T18:35:16;66;48.6;31.4
55857;PMS7003;41779;52.360;31.026;2024-03-08T18:40:00;66;48.6;31.4
55857;PMS7003;41779;52.360;31.026;2024-03-08T18:45:04;44.4;33.4;25
55857;PMS7003;41779;52.360;31.026;2024-03-08T18:49:46;44.4;33.4;25
55857;PMS7003;41779;52.360;31.026;2024-03-08T18:54:36;53.8;40;27
55857;PMS7003;41779;52.360;31.026;2024-03-08T19:00:17;29;25;18.4
55857;PMS7003;41779;52.360;31.026;2024-03-08T19:05:16;48.2;38.2;24.8
55857;PMS7003;41779;52.360;31.026;2024-03-08T19:09:28;48.2;38.2;24.8
55857;PMS7003;41779;52.360;31.026;2024-03-08T19:15:17;61.4;44.4;29.4
55857;PMS7003;41779;52.360;31.026;2024-03-08T19:20:17;52.8;39.4;27.4
55857;PMS7003;41779;52.360;31.026;2024-03-08T19:25:00;52.8;39.4;27.4
55857;PMS7003;41779;52.360;31.026;2024-03-08T19:30:00;55.6;41.4;27.4
55857;PMS7003;41779;52.360;31.026;2024-03-08T19:34:56;60.8;46.2;30.2
55857;PMS7003;41779;52.360;31.026;2024-03-08T19:39:28;71.6;52.2;34.2
55857;PMS7003;41779;52.360;31.026;2024-03-08T19:45:16;76.4;56.2;36
55857;PMS7003;41779;52.360;31.026;2024-03-08T19:49:46;76.4;56.2;36
55857;PMS7003;41779;52.360;31.026;2024-03-08T19:54:28;69.8;51;33.8
55857;PMS7003;41779;52.360;31.026;2024-03-08T19:59:30;77.8;55;36.5
55857;PMS7003;41779;52.360;31.026;2024-03-08T20:04:26;58.8;43.8;28.6
55857;PMS7003;41779;52.360;31.026;2024-03-08T20:10:16;13.2;10.8;8.2
55857;PMS7003;41779;52.360;31.026;2024-03-08T20:15:02;13.2;10.8;8.2
55857;PMS7003;41779;52.360;31.026;2024-03-08T20:20:07;11.6;10;7.8
55857;PMS7003;41779;52.360;31.026;2024-03-08T20:24:58;11.6;10;7.8
55857;PMS7003;41779;52.360;31.026;2024-03-08T20:29:55;8.4;6;5.6
55857;PMS7003;41779;52.360;31.026;2024-03-08T20:35:16;11.2;7.2;6
55857;PMS7003;41779;52.360;31.026;2024-03-08T20:40:17;7.6;6.4;5.8
55857;PMS7003;41779;52.360;31.026;2024-03-08T20:44:28;7.6;6.4;5.8
55857;PMS7003;41779;52.360;31.026;2024-03-08T20:50:16;10.8;6.8;5.8
55857;PMS7003;41779;52.360;31.026;2024-03-08T20:55:18;10.8;8.8;6.6
55857;PMS7003;41779;52.360;31.026;2024-03-08T21:00:05;10;7;5.6
55857;PMS7003;41779;52.360;31.026;2024-03-08T21:05:14;10;7.2;5.2
55857;PMS7003;41779;52.360;31.026;2024-03-08T21:09:36;10;7.2;5.2
55857;PMS7003;41779;52.360;31.026;2024-03-08T21:14:28;11.8;8.8;7
55857;PMS7003;41779;52.360;31.026;2024-03-08T21:19:34;11.2;8.6;6.6
55857;PMS7003;41779;52.360;31.026;2024-03-08T21:24:34;10.4;6.6;5.4
55857;PMS7003;41779;52.360;31.026;2024-03-08T21:29:38;10;7.6;6.2
55857;PMS7003;41779;52.360;31.026;2024-03-08T21:34:56;11;8.6;6
55857;PMS7003;41779;52.360;31.026;2024-03-08T21:39:42;9.4;7.8;6.2
55857;PMS7003;41779;52.360;31.026;2024-03-08T21:45:14;11.8;7.2;5.6
55857;PMS7003;41779;52.360;31.026;2024-03-08T21:50:05;10.4;7.4;5.6
55857;PMS7003;41779;52.360;31.026;2024-03-08T21:54:34;10.4;7.4;5.6
55857;PMS7003;41779;52.360;31.026;2024-03-08T21:59:42;10.3;8.3;6.5
55857;PMS7003;41779;52.360;31.026;2024-03-08T22:04:46;8;5.6;5
55857;PMS7003;41779;52.360;31.026;2024-03-08T22:09:42;7.8;5.8;4.6
55857;PMS7003;41779;52.360;31.026;2024-03-08T22:14:44;9;6.6;4.6
55857;PMS7003;41779;52.360;31.026;2024-03-08T22:20:07;8.2;6;4.6
55857;PMS7003;41779;52.360;31.026;2024-03-08T22:25:02;8.2;6;4.6
55857;PMS7003;41779;52.360;31.026;2024-03-08T22:30:17;6.8;5.6;3.8
55857;PMS7003;41779;52.360;31.026;2024-03-08T22:34:52;6.8;5.6;3.8
55857;PMS7003;41779;52.360;31.026;2024-03-08T22:40:07;6.8;5.8;4.8
55857;PMS7003;41779;52.360;31.026;2024-03-08T22:44:52;6.8;5.8;4.8
55857;PMS7003;41779;52.360;31.026;2024-03-08T22:49:48;9.6;5.4;4.8
55857;PMS7003;41779;52.360;31.026;2024-03-08T22:54:26;7.6;5.8;4.8
55857;PMS7003;41779;52.360;31.026;2024-03-08T22:59:48;9.3;6.3;4.3
55857;PMS7003;41779;52.360;31.026;2024-03-08T23:04:28;7.4;6.2;4.4
55857;PMS7003;41779;52.360;31.026;2024-03-08T23:09:28;9.4;6.8;5.4
55857;PMS7003;41779;52.360;31.026;2024-03-08T23:15:05;8.4;6.2;5
55857;PMS7003;41779;52.360;31.026;2024-03-08T23:20:16;7.4;6.2;5.2
55857;PMS7003;41779;52.360;31.026;2024-03-08T23:25:16;11.8;7.8;6.2
55857;PMS7003;41779;52.360;31.026;2024-03-08T23:29:44;11.8;7.8;6.2
55857;PMS7003;41779;52.360;31.026;2024-03-08T23:34:58;9;6;4.8
55857;PMS7003;41779;52.360;31.026;2024-03-08T23:40:19;9.4;6.4;5
55857;PMS7003;41779;52.360;31.026;2024-03-08T23:45:07;8.8;6.2;4.8
55857;PMS7003;41779;52.360;31.026;2024-03-08T23:49:44;8.8;6.2;4.8
55857;PMS7003;41779;52.360;31.026;2024-03-08T23:54:56;9.4;6.6;4.8
55857;PMS7003;41779;52.360;31.026;2024-03-08T23:59:26;8.8;5.8;4.5
